VAM Template | Vabird

Vabird! Vabird Marcello Mazzieri




 INFORMACIÓN METAR y TAF
METAR FOR LGSM
ADDS - METARS form results

(0524 UTC 21 October 2020)
Data provider http://aviationweather.gov/metar/data/
 
METAR text: LGSM 210450Z 03004KT 9999 FEW020 19/14 Q1017
Conditions at: LGSM (SAMOS AIRPORT , GR) observed 0450 UTC 21 October 2020
Temperature: 19.0°C (66°F)
Dewpoint: 14.0°C (57°F) [RH = 73%]
Pressure (altimeter): 30.03 inches Hg (1017.0 mb)
Winds: from the NNE (30 degrees) at 5 MPH (4 knots; 2.1 m/s)
Visibility: 6 or more miles (10+ km)
Ceiling: at least 12,000 feet AGL
Clouds: few clouds at 2000 feet AGL
Weather: no significant weather observed at this time

Forecast for: LGSM (SAMOS AIRPORT , GR)
Text: TAF LGSM 210500Z 2106/2115 01010KT 9999 SCT020
Forecast period: 0600 to 1500 UTC 21 October 2020
Forecast type: FROM: standard forecast or significant change
Winds: from the N (10 degrees) at 12 MPH (10 knots; 5.1 m/s)
Visibility: 6 or more miles (10+ km)
Ceiling: at least 12,000 feet AGL
Clouds: scattered clouds at 2000 feet AGL
Weather: no significant weather forecast for this period

 MAPA DE AEROPUERTO

 INFORMACIÓN DE PISTA